sensor_id;sensor_type;location;lat;lon;timestamp;P1;durP1;ratioP1;P2;durP2;ratioP2
82012;SDS011;71535;53.354;15.030;2023-07-16T00:01:17;6.30;;;3.30;;
82012;SDS011;71535;53.354;15.030;2023-07-16T00:03:43;6.13;;;2.77;;
82012;SDS011;71535;53.354;15.030;2023-07-16T00:06:08;4.95;;;3.00;;
82012;SDS011;71535;53.354;15.030;2023-07-16T00:08:33;5.93;;;2.80;;
82012;SDS011;71535;53.354;15.030;2023-07-16T00:10:59;8.47;;;3.23;;
82012;SDS011;71535;53.354;15.030;2023-07-16T00:13:24;6.95;;;3.67;;
82012;SDS011;71535;53.354;15.030;2023-07-16T00:15:49;6.80;;;2.92;;
82012;SDS011;71535;53.354;15.030;2023-07-16T00:18:15;6.03;;;3.08;;
82012;SDS011;71535;53.354;15.030;2023-07-16T00:20:40;6.30;;;2.92;;
82012;SDS011;71535;53.354;15.030;2023-07-16T00:23:05;8.05;;;3.28;;
82012;SDS011;71535;53.354;15.030;2023-07-16T00:25:31;8.48;;;3.38;;
82012;SDS011;71535;53.354;15.030;2023-07-16T00:27:56;7.20;;;3.42;;
82012;SDS011;71535;53.354;15.030;2023-07-16T00:30:22;7.18;;;3.50;;
82012;SDS011;71535;53.354;15.030;2023-07-16T00:32:47;7.03;;;3.30;;
82012;SDS011;71535;53.354;15.030;2023-07-16T00:35:13;7.17;;;3.83;;
82012;SDS011;71535;53.354;15.030;2023-07-16T00:37:38;7.75;;;3.08;;
82012;SDS011;71535;53.354;15.030;2023-07-16T00:40:04;6.25;;;2.83;;
82012;SDS011;71535;53.354;15.030;2023-07-16T00:42:29;4.70;;;3.17;;
82012;SDS011;71535;53.354;15.030;2023-07-16T00:44:55;9.27;;;3.03;;
82012;SDS011;71535;53.354;15.030;2023-07-16T00:47:21;5.40;;;2.90;;
82012;SDS011;71535;53.354;15.030;2023-07-16T00:49:46;7.07;;;3.20;;
82012;SDS011;71535;53.354;15.030;2023-07-16T00:52:14;5.38;;;2.80;;
82012;SDS011;71535;53.354;15.030;2023-07-16T00:54:43;5.68;;;3.40;;
82012;SDS011;71535;53.354;15.030;2023-07-16T00:57:08;6.38;;;3.10;;
82012;SDS011;71535;53.354;15.030;2023-07-16T00:59:34;6.40;;;2.88;;
82012;SDS011;71535;53.354;15.030;2023-07-16T01:01:59;7.25;;;3.17;;
82012;SDS011;71535;53.354;15.030;2023-07-16T01:04:24;5.53;;;3.28;;
82012;SDS011;71535;53.354;15.030;2023-07-16T01:06:51;5.88;;;3.22;;
82012;SDS011;71535;53.354;15.030;2023-07-16T01:09:19;7.32;;;3.72;;
82012;SDS011;71535;53.354;15.030;2023-07-16T01:11:46;5.72;;;3.30;;
82012;SDS011;71535;53.354;15.030;2023-07-16T01:14:13;6.78;;;3.40;;
82012;SDS011;71535;53.354;15.030;2023-07-16T01:16:41;12.35;;;4.88;;
82012;SDS011;71535;53.354;15.030;2023-07-16T01:19:07;7.57;;;3.92;;
82012;SDS011;71535;53.354;15.030;2023-07-16T01:21:45;8.35;;;4.80;;
82012;SDS011;71535;53.354;15.030;2023-07-16T01:24:33;7.05;;;4.00;;
82012;SDS011;71535;53.354;15.030;2023-07-16T01:27:34;7.13;;;3.92;;
82012;SDS011;71535;53.354;15.030;2023-07-16T01:30:08;6.45;;;3.95;;
82012;SDS011;71535;53.354;15.030;2023-07-16T01:32:36;8.55;;;4.30;;
82012;SDS011;71535;53.354;15.030;2023-07-16T01:35:02;6.97;;;4.68;;
82012;SDS011;71535;53.354;15.030;2023-07-16T01:37:30;7.75;;;4.22;;
82012;SDS011;71535;53.354;15.030;2023-07-16T01:39:56;9.00;;;5.18;;
82012;SDS011;71535;53.354;15.030;2023-07-16T01:42:22;7.80;;;4.68;;
82012;SDS011;71535;53.354;15.030;2023-07-16T01:44:47;8.90;;;5.03;;
82012;SDS011;71535;53.354;15.030;2023-07-16T01:50:02;7.57;;;4.63;;
82012;SDS011;71535;53.354;15.030;2023-07-16T01:52:28;9.82;;;4.45;;
82012;SDS011;71535;53.354;15.030;2023-07-16T01:54:53;7.95;;;4.63;;
82012;SDS011;71535;53.354;15.030;2023-07-16T01:57:18;8.40;;;4.43;;
82012;SDS011;71535;53.354;15.030;2023-07-16T01:59:44;6.93;;;4.47;;
82012;SDS011;71535;53.354;15.030;2023-07-16T02:02:11;7.38;;;4.03;;
82012;SDS011;71535;53.354;15.030;2023-07-16T02:04:36;9.15;;;4.20;;
82012;SDS011;71535;53.354;15.030;2023-07-16T02:07:02;6.22;;;4.05;;
82012;SDS011;71535;53.354;15.030;2023-07-16T02:09:28;7.53;;;4.30;;
82012;SDS011;71535;53.354;15.030;2023-07-16T02:11:54;6.55;;;3.78;;
82012;SDS011;71535;53.354;15.030;2023-07-16T02:14:19;9.77;;;3.65;;
82012;SDS011;71535;53.354;15.030;2023-07-16T02:16:44;5.40;;;3.63;;
82012;SDS011;71535;53.354;15.030;2023-07-16T02:19:10;7.18;;;4.10;;
82012;SDS011;71535;53.354;15.030;2023-07-16T02:21:35;8.52;;;3.53;;
82012;SDS011;71535;53.354;15.030;2023-07-16T02:24:00;5.97;;;3.45;;
82012;SDS011;71535;53.354;15.030;2023-07-16T02:26:26;5.88;;;3.53;;
82012;SDS011;71535;53.354;15.030;2023-07-16T02:28:51;5.60;;;3.33;;
82012;SDS011;71535;53.354;15.030;2023-07-16T02:31:17;6.38;;;3.58;;
82012;SDS011;71535;53.354;15.030;2023-07-16T02:33:42;7.07;;;3.90;;
82012;SDS011;71535;53.354;15.030;2023-07-16T02:36:07;4.78;;;2.70;;
82012;SDS011;71535;53.354;15.030;2023-07-16T02:38:33;5.32;;;2.83;;
82012;SDS011;71535;53.354;15.030;2023-07-16T02:40:58;5.97;;;2.95;;
82012;SDS011;71535;53.354;15.030;2023-07-16T02:43:23;6.97;;;3.30;;
82012;SDS011;71535;53.354;15.030;2023-07-16T02:45:49;5.40;;;3.10;;
82012;SDS011;71535;53.354;15.030;2023-07-16T02:48:14;6.65;;;2.72;;
82012;SDS011;71535;53.354;15.030;2023-07-16T02:50:40;5.57;;;3.08;;
82012;SDS011;71535;53.354;15.030;2023-07-16T02:53:05;7.13;;;3.00;;
82012;SDS011;71535;53.354;15.030;2023-07-16T02:55:32;4.78;;;2.40;;
82012;SDS011;71535;53.354;15.030;2023-07-16T02:57:59;6.75;;;3.10;;
82012;SDS011;71535;53.354;15.030;2023-07-16T03:00:27;6.70;;;2.58;;
82012;SDS011;71535;53.354;15.030;2023-07-16T03:02:53;5.15;;;2.25;;
82012;SDS011;71535;53.354;15.030;2023-07-16T03:05:18;4.60;;;2.70;;
82012;SDS011;71535;53.354;15.030;2023-07-16T03:07:43;4.47;;;1.83;;
82012;SDS011;71535;53.354;15.030;2023-07-16T03:10:09;5.32;;;2.03;;
82012;SDS011;71535;53.354;15.030;2023-07-16T03:12:35;4.20;;;1.73;;
82012;SDS011;71535;53.354;15.030;2023-07-16T03:15:00;5.05;;;2.10;;
82012;SDS011;71535;53.354;15.030;2023-07-16T03:17:26;5.97;;;2.03;;
82012;SDS011;71535;53.354;15.030;2023-07-16T03:19:51;3.35;;;1.60;;
82012;SDS011;71535;53.354;15.030;2023-07-16T03:22:16;5.53;;;2.30;;
82012;SDS011;71535;53.354;15.030;2023-07-16T03:24:42;4.50;;;2.00;;
82012;SDS011;71535;53.354;15.030;2023-07-16T03:27:07;4.80;;;2.30;;
82012;SDS011;71535;53.354;15.030;2023-07-16T03:29:33;5.10;;;1.98;;
82012;SDS011;71535;53.354;15.030;2023-07-16T03:31:59;4.13;;;1.80;;
82012;SDS011;71535;53.354;15.030;2023-07-16T03:34:24;4.20;;;1.80;;
82012;SDS011;71535;53.354;15.030;2023-07-16T03:36:50;4.00;;;1.63;;
82012;SDS011;71535;53.354;15.030;2023-07-16T03:39:15;5.47;;;1.98;;
82012;SDS011;71535;53.354;15.030;2023-07-16T03:41:40;4.78;;;2.38;;
82012;SDS011;71535;53.354;15.030;2023-07-16T03:44:06;5.82;;;1.98;;
82012;SDS011;71535;53.354;15.030;2023-07-16T03:46:31;4.40;;;2.17;;
82012;SDS011;71535;53.354;15.030;2023-07-16T03:48:56;4.78;;;2.25;;
82012;SDS011;71535;53.354;15.030;2023-07-16T03:51:22;4.68;;;2.00;;
82012;SDS011;71535;53.354;15.030;2023-07-16T03:53:47;4.32;;;2.05;;
82012;SDS011;71535;53.354;15.030;2023-07-16T03:56:12;4.43;;;2.22;;
82012;SDS011;71535;53.354;15.030;2023-07-16T03:58:38;6.68;;;2.17;;
82012;SDS011;71535;53.354;15.030;2023-07-16T04:01:03;7.03;;;2.05;;
82012;SDS011;71535;53.354;15.030;2023-07-16T04:03:28;4.43;;;2.22;;
82012;SDS011;71535;53.354;15.030;2023-07-16T04:06:01;5.50;;;2.03;;
82012;SDS011;71535;53.354;15.030;2023-07-16T04:08:27;5.95;;;2.42;;
82012;SDS011;71535;53.354;15.030;2023-07-16T04:10:52;5.00;;;2.10;;
82012;SDS011;71535;53.354;15.030;2023-07-16T04:13:18;4.67;;;2.07;;
82012;SDS011;71535;53.354;15.030;2023-07-16T04:15:43;6.50;;;2.30;;
82012;SDS011;71535;53.354;15.030;2023-07-16T04:18:08;5.35;;;2.15;;
82012;SDS011;71535;53.354;15.030;2023-07-16T04:20:34;6.28;;;2.58;;
82012;SDS011;71535;53.354;15.030;2023-07-16T04:22:59;11.93;;;2.80;;
82012;SDS011;71535;53.354;15.030;2023-07-16T04:25:24;4.95;;;2.47;;
82012;SDS011;71535;53.354;15.030;2023-07-16T04:27:50;6.32;;;2.50;;
82012;SDS011;71535;53.354;15.030;2023-07-16T04:30:15;6.68;;;2.10;;
82012;SDS011;71535;53.354;15.030;2023-07-16T04:32:40;4.75;;;2.20;;
82012;SDS011;71535;53.354;15.030;2023-07-16T04:35:06;5.20;;;2.60;;
82012;SDS011;71535;53.354;15.030;2023-07-16T04:37:32;4.97;;;2.22;;
82012;SDS011;71535;53.354;15.030;2023-07-16T04:39:57;4.53;;;2.38;;
82012;SDS011;71535;53.354;15.030;2023-07-16T04:42:23;6.05;;;2.65;;
82012;SDS011;71535;53.354;15.030;2023-07-16T04:44:48;6.18;;;2.50;;
82012;SDS011;71535;53.354;15.030;2023-07-16T04:47:13;4.67;;;2.30;;
82012;SDS011;71535;53.354;15.030;2023-07-16T04:49:39;6.32;;;2.47;;
82012;SDS011;71535;53.354;15.030;2023-07-16T04:52:04;5.97;;;2.40;;
82012;SDS011;71535;53.354;15.030;2023-07-16T04:54:34;5.43;;;2.75;;
82012;SDS011;71535;53.354;15.030;2023-07-16T04:57:01;5.25;;;2.30;;
82012;SDS011;71535;53.354;15.030;2023-07-16T04:59:26;4.47;;;2.53;;
82012;SDS011;71535;53.354;15.030;2023-07-16T05:01:51;5.50;;;2.20;;
82012;SDS011;71535;53.354;15.030;2023-07-16T05:04:16;4.20;;;2.27;;
82012;SDS011;71535;53.354;15.030;2023-07-16T05:06:42;6.32;;;2.67;;
82012;SDS011;71535;53.354;15.030;2023-07-16T05:09:07;5.40;;;2.70;;
82012;SDS011;71535;53.354;15.030;2023-07-16T05:11:32;5.27;;;2.60;;
82012;SDS011;71535;53.354;15.030;2023-07-16T05:13:58;5.78;;;2.80;;
82012;SDS011;71535;53.354;15.030;2023-07-16T05:16:23;5.70;;;2.70;;
82012;SDS011;71535;53.354;15.030;2023-07-16T05:18:49;6.35;;;2.72;;
82012;SDS011;71535;53.354;15.030;2023-07-16T05:21:14;4.70;;;2.40;;
82012;SDS011;71535;53.354;15.030;2023-07-16T05:23:39;6.60;;;3.37;;
82012;SDS011;71535;53.354;15.030;2023-07-16T05:26:04;6.27;;;3.17;;
82012;SDS011;71535;53.354;15.030;2023-07-16T05:28:30;5.60;;;3.03;;
82012;SDS011;71535;53.354;15.030;2023-07-16T05:31:02;5.22;;;3.00;;
82012;SDS011;71535;53.354;15.030;2023-07-16T05:33:28;4.70;;;2.40;;
82012;SDS011;71535;53.354;15.030;2023-07-16T05:35:53;4.70;;;2.45;;
82012;SDS011;71535;53.354;15.030;2023-07-16T05:38:19;5.38;;;3.15;;
82012;SDS011;71535;53.354;15.030;2023-07-16T05:40:44;6.80;;;2.72;;
82012;SDS011;71535;53.354;15.030;2023-07-16T05:43:09;6.68;;;3.00;;
82012;SDS011;71535;53.354;15.030;2023-07-16T05:45:36;5.50;;;2.92;;
82012;SDS011;71535;53.354;15.030;2023-07-16T05:48:01;6.53;;;3.22;;
82012;SDS011;71535;53.354;15.030;2023-07-16T05:50:27;6.50;;;3.15;;
82012;SDS011;71535;53.354;15.030;2023-07-16T05:52:52;6.80;;;3.35;;
82012;SDS011;71535;53.354;15.030;2023-07-16T05:55:17;6.72;;;3.10;;
82012;SDS011;71535;53.354;15.030;2023-07-16T05:57:43;6.43;;;3.15;;
82012;SDS011;71535;53.354;15.030;2023-07-16T06:00:08;9.23;;;3.65;;
82012;SDS011;71535;53.354;15.030;2023-07-16T06:02:35;5.82;;;3.33;;
82012;SDS011;71535;53.354;15.030;2023-07-16T06:05:00;5.22;;;3.13;;
82012;SDS011;71535;53.354;15.030;2023-07-16T06:07:26;6.50;;;3.20;;
82012;SDS011;71535;53.354;15.030;2023-07-16T06:09:51;5.78;;;3.30;;
82012;SDS011;71535;53.354;15.030;2023-07-16T06:12:16;6.82;;;3.60;;
82012;SDS011;71535;53.354;15.030;2023-07-16T06:14:42;6.95;;;3.70;;
82012;SDS011;71535;53.354;15.030;2023-07-16T06:17:07;6.50;;;3.42;;
82012;SDS011;71535;53.354;15.030;2023-07-16T06:19:32;7.78;;;3.58;;
82012;SDS011;71535;53.354;15.030;2023-07-16T06:21:58;6.10;;;3.13;;
82012;SDS011;71535;53.354;15.030;2023-07-16T06:24:23;5.70;;;3.40;;
82012;SDS011;71535;53.354;15.030;2023-07-16T06:26:48;7.15;;;3.90;;
82012;SDS011;71535;53.354;15.030;2023-07-16T06:29:14;6.13;;;3.55;;
82012;SDS011;71535;53.354;15.030;2023-07-16T06:31:41;6.15;;;3.45;;
82012;SDS011;71535;53.354;15.030;2023-07-16T06:34:08;6.13;;;3.25;;
82012;SDS011;71535;53.354;15.030;2023-07-16T06:36:34;5.67;;;3.30;;
82012;SDS011;71535;53.354;15.030;2023-07-16T06:38:59;5.63;;;3.25;;
82012;SDS011;71535;53.354;15.030;2023-07-16T06:41:25;5.50;;;3.20;;
82012;SDS011;71535;53.354;15.030;2023-07-16T06:43:51;5.60;;;3.10;;
82012;SDS011;71535;53.354;15.030;2023-07-16T06:46:16;5.82;;;3.72;;
82012;SDS011;71535;53.354;15.030;2023-07-16T06:48:41;5.90;;;3.33;;
82012;SDS011;71535;53.354;15.030;2023-07-16T06:51:07;7.15;;;2.85;;
82012;SDS011;71535;53.354;15.030;2023-07-16T06:53:32;7.38;;;3.15;;
82012;SDS011;71535;53.354;15.030;2023-07-16T06:55:58;6.43;;;3.53;;
82012;SDS011;71535;53.354;15.030;2023-07-16T06:58:30;6.13;;;3.35;;
82012;SDS011;71535;53.354;15.030;2023-07-16T07:00:57;6.60;;;3.45;;
82012;SDS011;71535;53.354;15.030;2023-07-16T07:03:23;7.90;;;3.60;;
82012;SDS011;71535;53.354;15.030;2023-07-16T07:05:48;6.03;;;3.30;;
82012;SDS011;71535;53.354;15.030;2023-07-16T07:08:13;6.43;;;2.78;;
82012;SDS011;71535;53.354;15.030;2023-07-16T07:10:39;7.70;;;3.50;;
82012;SDS011;71535;53.354;15.030;2023-07-16T07:13:04;4.82;;;2.83;;
82012;SDS011;71535;53.354;15.030;2023-07-16T07:15:30;5.05;;;2.90;;
82012;SDS011;71535;53.354;15.030;2023-07-16T07:17:55;5.60;;;2.90;;
82012;SDS011;71535;53.354;15.030;2023-07-16T07:20:20;7.93;;;3.53;;
82012;SDS011;71535;53.354;15.030;2023-07-16T07:22:46;6.60;;;3.33;;
82012;SDS011;71535;53.354;15.030;2023-07-16T07:25:11;6.40;;;3.42;;
82012;SDS011;71535;53.354;15.030;2023-07-16T07:27:37;5.85;;;3.38;;
82012;SDS011;71535;53.354;15.030;2023-07-16T07:30:02;6.95;;;4.28;;
82012;SDS011;71535;53.354;15.030;2023-07-16T07:32:28;5.55;;;2.97;;
82012;SDS011;71535;53.354;15.030;2023-07-16T07:34:54;5.00;;;3.08;;
82012;SDS011;71535;53.354;15.030;2023-07-16T07:37:19;5.35;;;2.97;;
82012;SDS011;71535;53.354;15.030;2023-07-16T07:39:45;7.25;;;4.30;;
82012;SDS011;71535;53.354;15.030;2023-07-16T07:42:14;6.05;;;3.38;;
82012;SDS011;71535;53.354;15.030;2023-07-16T07:44:40;5.78;;;3.28;;
82012;SDS011;71535;53.354;15.030;2023-07-16T07:47:06;7.18;;;3.28;;
82012;SDS011;71535;53.354;15.030;2023-07-16T07:49:33;7.78;;;3.92;;
82012;SDS011;71535;53.354;15.030;2023-07-16T07:51:59;6.40;;;3.55;;
82012;SDS011;71535;53.354;15.030;2023-07-16T07:54:24;7.28;;;3.90;;
82012;SDS011;71535;53.354;15.030;2023-07-16T07:56:50;6.00;;;3.20;;
82012;SDS011;71535;53.354;15.030;2023-07-16T07:59:15;5.85;;;3.47;;
82012;SDS011;71535;53.354;15.030;2023-07-16T08:01:41;5.43;;;3.03;;
82012;SDS011;71535;53.354;15.030;2023-07-16T08:04:06;8.55;;;3.50;;
82012;SDS011;71535;53.354;15.030;2023-07-16T08:06:31;7.85;;;3.88;;
82012;SDS011;71535;53.354;15.030;2023-07-16T08:08:57;6.45;;;2.90;;
82012;SDS011;71535;53.354;15.030;2023-07-16T08:11:22;6.10;;;2.90;;
82012;SDS011;71535;53.354;15.030;2023-07-16T08:13:49;5.05;;;2.70;;
82012;SDS011;71535;53.354;15.030;2023-07-16T08:16:14;5.20;;;2.65;;
82012;SDS011;71535;53.354;15.030;2023-07-16T08:18:40;5.93;;;3.00;;
82012;SDS011;71535;53.354;15.030;2023-07-16T08:21:05;6.28;;;2.78;;
82012;SDS011;71535;53.354;15.030;2023-07-16T08:23:30;5.03;;;2.97;;
82012;SDS011;71535;53.354;15.030;2023-07-16T08:25:56;6.88;;;3.10;;
82012;SDS011;71535;53.354;15.030;2023-07-16T08:28:22;8.65;;;3.05;;
82012;SDS011;71535;53.354;15.030;2023-07-16T08:30:47;6.70;;;2.90;;
82012;SDS011;71535;53.354;15.030;2023-07-16T08:33:16;4.82;;;2.92;;
82012;SDS011;71535;53.354;15.030;2023-07-16T08:35:41;6.35;;;3.38;;
82012;SDS011;71535;53.354;15.030;2023-07-16T08:38:06;5.75;;;2.95;;
82012;SDS011;71535;53.354;15.030;2023-07-16T08:40:35;6.57;;;3.50;;
82012;SDS011;71535;53.354;15.030;2023-07-16T08:43:02;5.78;;;3.20;;
82012;SDS011;71535;53.354;15.030;2023-07-16T08:45:30;6.05;;;3.50;;
82012;SDS011;71535;53.354;15.030;2023-07-16T08:47:58;4.82;;;2.75;;
82012;SDS011;71535;53.354;15.030;2023-07-16T08:50:23;5.28;;;2.75;;
82012;SDS011;71535;53.354;15.030;2023-07-16T08:52:50;5.20;;;3.35;;
82012;SDS011;71535;53.354;15.030;2023-07-16T08:55:16;5.15;;;2.63;;
82012;SDS011;71535;53.354;15.030;2023-07-16T08:57:42;4.65;;;2.85;;
82012;SDS011;71535;53.354;15.030;2023-07-16T09:00:08;4.35;;;2.50;;
82012;SDS011;71535;53.354;15.030;2023-07-16T09:02:34;4.93;;;2.80;;
82012;SDS011;71535;53.354;15.030;2023-07-16T09:05:00;5.10;;;2.50;;
82012;SDS011;71535;53.354;15.030;2023-07-16T09:07:25;5.82;;;2.65;;
82012;SDS011;71535;53.354;15.030;2023-07-16T09:09:55;4.70;;;2.50;;
82012;SDS011;71535;53.354;15.030;2023-07-16T09:12:23;4.85;;;1.73;;
82012;SDS011;71535;53.354;15.030;2023-07-16T09:14:49;6.63;;;2.45;;
82012;SDS011;71535;53.354;15.030;2023-07-16T09:17:19;5.45;;;1.88;;
82012;SDS011;71535;53.354;15.030;2023-07-16T09:19:46;5.72;;;1.88;;
82012;SDS011;71535;53.354;15.030;2023-07-16T09:22:12;5.57;;;2.20;;
82012;SDS011;71535;53.354;15.030;2023-07-16T09:24:37;5.75;;;3.05;;
82012;SDS011;71535;53.354;15.030;2023-07-16T09:27:02;4.37;;;2.03;;
82012;SDS011;71535;53.354;15.030;2023-07-16T09:29:28;6.20;;;2.50;;
82012;SDS011;71535;53.354;15.030;2023-07-16T09:31:57;6.18;;;2.13;;
82012;SDS011;71535;53.354;15.030;2023-07-16T09:34:27;5.63;;;2.50;;
82012;SDS011;71535;53.354;15.030;2023-07-16T09:36:53;4.50;;;1.80;;
82012;SDS011;71535;53.354;15.030;2023-07-16T09:39:19;10.23;;;2.00;;
82012;SDS011;71535;53.354;15.030;2023-07-16T09:41:45;5.00;;;2.03;;
82012;SDS011;71535;53.354;15.030;2023-07-16T09:44:12;3.72;;;1.73;;
82012;SDS011;71535;53.354;15.030;2023-07-16T09:46:38;3.72;;;1.70;;
82012;SDS011;71535;53.354;15.030;2023-07-16T09:49:04;8.40;;;3.90;;
82012;SDS011;71535;53.354;15.030;2023-07-16T09:51:30;4.60;;;1.48;;
82012;SDS011;71535;53.354;15.030;2023-07-16T09:53:57;3.92;;;1.40;;
82012;SDS011;71535;53.354;15.030;2023-07-16T09:56:25;4.70;;;1.50;;
82012;SDS011;71535;53.354;15.030;2023-07-16T09:58:57;4.32;;;1.35;;
82012;SDS011;71535;53.354;15.030;2023-07-16T10:01:24;3.75;;;1.17;;
82012;SDS011;71535;53.354;15.030;2023-07-16T10:03:50;3.92;;;1.42;;
82012;SDS011;71535;53.354;15.030;2023-07-16T10:06:16;3.63;;;1.15;;
82012;SDS011;71535;53.354;15.030;2023-07-16T10:08:48;3.60;;;0.93;;
82012;SDS011;71535;53.354;15.030;2023-07-16T10:11:17;4.78;;;1.10;;
82012;SDS011;71535;53.354;15.030;2023-07-16T10:13:50;3.15;;;1.15;;
82012;SDS011;71535;53.354;15.030;2023-07-16T10:16:21;4.95;;;1.50;;
82012;SDS011;71535;53.354;15.030;2023-07-16T10:18:52;9.82;;;2.97;;
82012;SDS011;71535;53.354;15.030;2023-07-16T10:21:23;3.95;;;1.60;;
82012;SDS011;71535;53.354;15.030;2023-07-16T10:23:56;6.85;;;2.47;;
82012;SDS011;71535;53.354;15.030;2023-07-16T10:26:26;4.50;;;2.08;;
82012;SDS011;71535;53.354;15.030;2023-07-16T10:28:54;4.70;;;2.30;;
82012;SDS011;71535;53.354;15.030;2023-07-16T10:31:23;5.77;;;2.10;;
82012;SDS011;71535;53.354;15.030;2023-07-16T10:33:59;5.20;;;2.15;;
82012;SDS011;71535;53.354;15.030;2023-07-16T10:36:25;4.05;;;2.15;;
82012;SDS011;71535;53.354;15.030;2023-07-16T10:38:51;5.32;;;2.22;;
82012;SDS011;71535;53.354;15.030;2023-07-16T10:41:16;4.50;;;1.93;;
82012;SDS011;71535;53.354;15.030;2023-07-16T10:43:42;5.82;;;2.13;;
82012;SDS011;71535;53.354;15.030;2023-07-16T10:46:08;4.97;;;2.17;;
82012;SDS011;71535;53.354;15.030;2023-07-16T10:48:34;4.03;;;2.08;;
82012;SDS011;71535;53.354;15.030;2023-07-16T10:50:59;4.53;;;1.80;;
82012;SDS011;71535;53.354;15.030;2023-07-16T10:53:25;5.78;;;3.28;;
82012;SDS011;71535;53.354;15.030;2023-07-16T10:55:50;6.57;;;2.72;;
82012;SDS011;71535;53.354;15.030;2023-07-16T10:58:16;3.97;;;1.65;;
82012;SDS011;71535;53.354;15.030;2023-07-16T11:00:41;4.57;;;1.80;;
82012;SDS011;71535;53.354;15.030;2023-07-16T11:03:07;3.88;;;1.77;;
82012;SDS011;71535;53.354;15.030;2023-07-16T11:05:34;3.65;;;1.67;;
82012;SDS011;71535;53.354;15.030;2023-07-16T11:08:00;4.25;;;1.75;;
82012;SDS011;71535;53.354;15.030;2023-07-16T11:10:27;4.38;;;2.17;;
82012;SDS011;71535;53.354;15.030;2023-07-16T11:12:54;4.20;;;1.63;;
82012;SDS011;71535;53.354;15.030;2023-07-16T11:15:33;3.95;;;1.58;;
82012;SDS011;71535;53.354;15.030;2023-07-16T11:17:59;3.28;;;1.30;;
82012;SDS011;71535;53.354;15.030;2023-07-16T11:20:26;3.92;;;1.42;;
82012;SDS011;71535;53.354;15.030;2023-07-16T11:22:51;4.75;;;1.60;;
82012;SDS011;71535;53.354;15.030;2023-07-16T11:25:17;5.28;;;1.98;;
82012;SDS011;71535;53.354;15.030;2023-07-16T11:27:43;4.60;;;1.98;;
82012;SDS011;71535;53.354;15.030;2023-07-16T11:30:08;4.13;;;2.22;;
82012;SDS011;71535;53.354;15.030;2023-07-16T11:35:07;4.22;;;1.85;;
82012;SDS011;71535;53.354;15.030;2023-07-16T11:37:33;3.70;;;1.70;;
82012;SDS011;71535;53.354;15.030;2023-07-16T11:40:01;4.90;;;1.63;;
82012;SDS011;71535;53.354;15.030;2023-07-16T11:42:31;4.90;;;1.75;;
82012;SDS011;71535;53.354;15.030;2023-07-16T11:44:58;5.18;;;2.08;;
82012;SDS011;71535;53.354;15.030;2023-07-16T11:47:24;4.25;;;2.17;;
82012;SDS011;71535;53.354;15.030;2023-07-16T11:49:50;5.72;;;1.92;;
82012;SDS011;71535;53.354;15.030;2023-07-16T11:52:20;5.05;;;3.22;;
82012;SDS011;71535;53.354;15.030;2023-07-16T11:54:48;5.22;;;2.00;;
82012;SDS011;71535;53.354;15.030;2023-07-16T11:57:14;4.10;;;1.98;;
82012;SDS011;71535;53.354;15.030;2023-07-16T11:59:39;5.07;;;1.98;;
82012;SDS011;71535;53.354;15.030;2023-07-16T12:02:04;5.57;;;2.40;;
82012;SDS011;71535;53.354;15.030;2023-07-16T12:04:30;5.32;;;2.53;;
82012;SDS011;71535;53.354;15.030;2023-07-16T12:06:55;4.20;;;2.50;;
82012;SDS011;71535;53.354;15.030;2023-07-16T12:09:20;6.95;;;2.47;;
82012;SDS011;71535;53.354;15.030;2023-07-16T12:11:46;4.95;;;2.38;;
82012;SDS011;71535;53.354;15.030;2023-07-16T12:14:12;4.45;;;2.00;;
82012;SDS011;71535;53.354;15.030;2023-07-16T12:16:38;4.80;;;2.20;;
82012;SDS011;71535;53.354;15.030;2023-07-16T12:19:03;4.03;;;2.00;;
82012;SDS011;71535;53.354;15.030;2023-07-16T12:21:30;4.28;;;2.92;;
82012;SDS011;71535;53.354;15.030;2023-07-16T12:23:55;5.03;;;1.90;;
82012;SDS011;71535;53.354;15.030;2023-07-16T12:26:20;5.00;;;1.83;;
82012;SDS011;71535;53.354;15.030;2023-07-16T12:28:46;4.97;;;1.80;;
82012;SDS011;71535;53.354;15.030;2023-07-16T12:31:11;6.00;;;2.87;;
82012;SDS011;71535;53.354;15.030;2023-07-16T12:33:36;4.43;;;2.95;;
82012;SDS011;71535;53.354;15.030;2023-07-16T12:36:02;3.80;;;1.92;;
82012;SDS011;71535;53.354;15.030;2023-07-16T12:38:28;5.72;;;2.50;;
82012;SDS011;71535;53.354;15.030;2023-07-16T12:40:53;4.70;;;3.28;;
82012;SDS011;71535;53.354;15.030;2023-07-16T12:43:18;5.35;;;2.30;;
82012;SDS011;71535;53.354;15.030;2023-07-16T12:45:44;5.32;;;2.10;;
82012;SDS011;71535;53.354;15.030;2023-07-16T12:48:09;4.03;;;2.10;;
82012;SDS011;71535;53.354;15.030;2023-07-16T12:50:34;3.90;;;1.83;;
82012;SDS011;71535;53.354;15.030;2023-07-16T12:53:00;6.00;;;2.28;;
82012;SDS011;71535;53.354;15.030;2023-07-16T12:55:25;5.47;;;2.30;;
82012;SDS011;71535;53.354;15.030;2023-07-16T12:57:50;4.55;;;3.10;;
82012;SDS011;71535;53.354;15.030;2023-07-16T13:00:16;5.72;;;2.35;;
82012;SDS011;71535;53.354;15.030;2023-07-16T13:02:41;4.35;;;2.55;;
82012;SDS011;71535;53.354;15.030;2023-07-16T13:05:06;4.47;;;2.08;;
82012;SDS011;71535;53.354;15.030;2023-07-16T13:07:32;5.60;;;2.95;;
82012;SDS011;71535;53.354;15.030;2023-07-16T13:09:58;5.93;;;2.50;;
82012;SDS011;71535;53.354;15.030;2023-07-16T13:12:23;4.10;;;1.85;;
82012;SDS011;71535;53.354;15.030;2023-07-16T13:14:49;4.43;;;2.08;;
82012;SDS011;71535;53.354;15.030;2023-07-16T13:17:14;4.43;;;2.77;;
82012;SDS011;71535;53.354;15.030;2023-07-16T13:19:44;3.88;;;2.00;;
82012;SDS011;71535;53.354;15.030;2023-07-16T13:22:10;6.63;;;2.50;;
82012;SDS011;71535;53.354;15.030;2023-07-16T13:24:35;4.22;;;1.67;;
82012;SDS011;71535;53.354;15.030;2023-07-16T13:27:00;5.30;;;2.60;;
82012;SDS011;71535;53.354;15.030;2023-07-16T13:29:26;4.95;;;2.92;;
82012;SDS011;71535;53.354;15.030;2023-07-16T13:31:51;5.50;;;2.20;;
82012;SDS011;71535;53.354;15.030;2023-07-16T13:34:17;4.70;;;2.00;;
82012;SDS011;71535;53.354;15.030;2023-07-16T13:36:42;6.38;;;2.25;;
82012;SDS011;71535;53.354;15.030;2023-07-16T13:39:07;4.77;;;2.27;;
82012;SDS011;71535;53.354;15.030;2023-07-16T13:41:33;5.95;;;2.10;;
82012;SDS011;71535;53.354;15.030;2023-07-16T13:43:58;4.93;;;2.70;;
82012;SDS011;71535;53.354;15.030;2023-07-16T13:46:24;3.70;;;2.25;;
82012;SDS011;71535;53.354;15.030;2023-07-16T13:48:49;5.10;;;3.25;;
82012;SDS011;71535;53.354;15.030;2023-07-16T13:51:14;4.30;;;2.17;;
82012;SDS011;71535;53.354;15.030;2023-07-16T13:53:40;5.72;;;2.25;;
82012;SDS011;71535;53.354;15.030;2023-07-16T13:56:05;5.47;;;3.40;;
82012;SDS011;71535;53.354;15.030;2023-07-16T13:58:31;3.83;;;2.00;;
82012;SDS011;71535;53.354;15.030;2023-07-16T14:00:56;4.90;;;2.10;;
82012;SDS011;71535;53.354;15.030;2023-07-16T14:03:21;4.43;;;2.20;;
82012;SDS011;71535;53.354;15.030;2023-07-16T14:05:47;5.33;;;2.20;;
82012;SDS011;71535;53.354;15.030;2023-07-16T14:08:12;4.10;;;2.17;;
82012;SDS011;71535;53.354;15.030;2023-07-16T14:10:38;6.15;;;2.10;;
82012;SDS011;71535;53.354;15.030;2023-07-16T14:13:03;4.18;;;2.28;;
82012;SDS011;71535;53.354;15.030;2023-07-16T14:15:28;4.80;;;1.73;;
82012;SDS011;71535;53.354;15.030;2023-07-16T14:17:54;4.50;;;2.20;;
82012;SDS011;71535;53.354;15.030;2023-07-16T14:20:19;4.13;;;1.77;;
82012;SDS011;71535;53.354;15.030;2023-07-16T14:22:44;3.75;;;2.10;;
82012;SDS011;71535;53.354;15.030;2023-07-16T14:25:10;5.75;;;2.38;;
82012;SDS011;71535;53.354;15.030;2023-07-16T14:27:35;4.93;;;1.80;;
82012;SDS011;71535;53.354;15.030;2023-07-16T14:30:00;4.53;;;1.77;;
82012;SDS011;71535;53.354;15.030;2023-07-16T14:32:26;4.50;;;2.35;;